sensor_id;sensor_type;location;lat;lon;timestamp;temperature;humidity
69281;SHT31;56392;51.082;17.080;2023-09-12T00:01:57;19.19;75.60
69281;SHT31;56392;51.082;17.080;2023-09-12T00:07:20;19.09;75.82
69281;SHT31;56392;51.082;17.080;2023-09-12T00:12:44;19.09;75.75
69281;SHT31;56392;51.082;17.080;2023-09-12T00:18:08;19.02;76.04
69281;SHT31;56392;51.082;17.080;2023-09-12T00:23:31;18.95;76.15
69281;SHT31;56392;51.082;17.080;2023-09-12T00:28:56;18.92;76.12
69281;SHT31;56392;51.082;17.080;2023-09-12T00:34:19;18.89;76.20
69281;SHT31;56392;51.082;17.080;2023-09-12T00:39:42;18.79;76.46
69281;SHT31;56392;51.082;17.080;2023-09-12T00:45:08;18.83;76.38
69281;SHT31;56392;51.082;17.080;2023-09-12T00:50:31;18.83;76.20
69281;SHT31;56392;51.082;17.080;2023-09-12T00:55:57;18.77;76.33
69281;SHT31;56392;51.082;17.080;2023-09-12T01:01:23;18.81;76.41
69281;SHT31;56392;51.082;17.080;2023-09-12T01:06:49;18.72;76.62
69281;SHT31;56392;51.082;17.080;2023-09-12T01:12:12;18.73;76.66
69281;SHT31;56392;51.082;17.080;2023-09-12T01:17:37;18.59;77.09
69281;SHT31;56392;51.082;17.080;2023-09-12T01:23:12;18.62;77.07
69281;SHT31;56392;51.082;17.080;2023-09-12T01:28:42;18.62;76.99
69281;SHT31;56392;51.082;17.080;2023-09-12T01:34:11;18.65;76.88
69281;SHT31;56392;51.082;17.080;2023-09-12T01:39:37;18.66;76.71
69281;SHT31;56392;51.082;17.080;2023-09-12T01:45:03;18.68;76.66
69281;SHT31;56392;51.082;17.080;2023-09-12T01:50:27;18.66;76.58
69281;SHT31;56392;51.082;17.080;2023-09-12T01:55:51;18.56;76.68
69281;SHT31;56392;51.082;17.080;2023-09-12T02:01:15;18.51;76.93
69281;SHT31;56392;51.082;17.080;2023-09-12T02:06:39;18.34;77.61
69281;SHT31;56392;51.082;17.080;2023-09-12T02:12:06;18.35;77.40
69281;SHT31;56392;51.082;17.080;2023-09-12T02:17:30;18.35;77.40
69281;SHT31;56392;51.082;17.080;2023-09-12T02:22:53;18.34;77.51
69281;SHT31;56392;51.082;17.080;2023-09-12T02:28:16;18.28;77.88
69281;SHT31;56392;51.082;17.080;2023-09-12T02:33:42;18.32;77.67
69281;SHT31;56392;51.082;17.080;2023-09-12T02:39:06;18.35;77.43
69281;SHT31;56392;51.082;17.080;2023-09-12T02:44:29;18.38;77.27
69281;SHT31;56392;51.082;17.080;2023-09-12T02:49:55;18.34;77.38
69281;SHT31;56392;51.082;17.080;2023-09-12T02:55:18;18.23;77.52
69281;SHT31;56392;51.082;17.080;2023-09-12T03:00:41;18.20;77.55
69281;SHT31;56392;51.082;17.080;2023-09-12T03:06:06;18.15;77.54
69281;SHT31;56392;51.082;17.080;2023-09-12T03:11:29;18.15;77.29
69281;SHT31;56392;51.082;17.080;2023-09-12T03:16:53;18.15;77.00
69281;SHT31;56392;51.082;17.080;2023-09-12T03:22:18;18.08;76.75
69281;SHT31;56392;51.082;17.080;2023-09-12T03:27:41;17.94;76.81
69281;SHT31;56392;51.082;17.080;2023-09-12T03:33:06;17.84;76.96
69281;SHT31;56392;51.082;17.080;2023-09-12T03:38:30;17.73;77.09
69281;SHT31;56392;51.082;17.080;2023-09-12T03:43:54;17.77;76.89
69281;SHT31;56392;51.082;17.080;2023-09-12T03:49:18;17.74;76.82
69281;SHT31;56392;51.082;17.080;2023-09-12T03:54:42;17.59;76.98
69281;SHT31;56392;51.082;17.080;2023-09-12T04:00:06;17.56;77.10
69281;SHT31;56392;51.082;17.080;2023-09-12T04:05:30;17.57;76.85
69281;SHT31;56392;51.082;17.080;2023-09-12T04:10:55;17.57;76.81
69281;SHT31;56392;51.082;17.080;2023-09-12T04:16:18;17.53;76.77
69281;SHT31;56392;51.082;17.080;2023-09-12T04:21:41;17.47;76.86
69281;SHT31;56392;51.082;17.080;2023-09-12T04:27:06;17.47;76.98
69281;SHT31;56392;51.082;17.080;2023-09-12T04:32:29;17.45;77.07
69281;SHT31;56392;51.082;17.080;2023-09-12T04:37:52;17.40;77.40
69281;SHT31;56392;51.082;17.080;2023-09-12T04:43:17;17.45;77.32
69281;SHT31;56392;51.082;17.080;2023-09-12T04:48:40;17.49;77.38
69281;SHT31;56392;51.082;17.080;2023-09-12T04:54:04;17.47;77.41
69281;SHT31;56392;51.082;17.080;2023-09-12T04:59:28;17.50;77.49
69281;SHT31;56392;51.082;17.080;2023-09-12T05:04:51;17.53;77.45
69281;SHT31;56392;51.082;17.080;2023-09-12T05:10:20;17.60;77.34
69281;SHT31;56392;51.082;17.080;2023-09-12T05:15:46;17.69;77.21
69281;SHT31;56392;51.082;17.080;2023-09-12T05:21:11;17.72;77.25
69281;SHT31;56392;51.082;17.080;2023-09-12T05:26:34;17.76;77.92
69281;SHT31;56392;51.082;17.080;2023-09-12T05:31:58;17.86;78.65
69281;SHT31;56392;51.082;17.080;2023-09-12T05:37:21;17.96;79.21
69281;SHT31;56392;51.082;17.080;2023-09-12T05:42:45;17.98;80.27
69281;SHT31;56392;51.082;17.080;2023-09-12T05:48:09;18.13;79.67
69281;SHT31;56392;51.082;17.080;2023-09-12T05:53:34;18.32;79.36
69281;SHT31;56392;51.082;17.080;2023-09-12T05:58:57;18.52;78.96
69281;SHT31;56392;51.082;17.080;2023-09-12T06:04:22;18.65;78.34
69281;SHT31;56392;51.082;17.080;2023-09-12T06:09:45;18.83;78.26
69281;SHT31;56392;51.082;17.080;2023-09-12T06:15:09;19.12;78.26
69281;SHT31;56392;51.082;17.080;2023-09-12T06:20:33;19.54;76.96
69281;SHT31;56392;51.082;17.080;2023-09-12T06:25:57;20.02;76.33
69281;SHT31;56392;51.082;17.080;2023-09-12T06:31:20;20.49;74.16
69281;SHT31;56392;51.082;17.080;2023-09-12T06:36:45;20.94;73.62
69281;SHT31;56392;51.082;17.080;2023-09-12T06:42:08;21.48;72.78
69281;SHT31;56392;51.082;17.080;2023-09-12T06:47:31;21.90;71.01
69281;SHT31;56392;51.082;17.080;2023-09-12T06:52:56;22.34;70.45
69281;SHT31;56392;51.082;17.080;2023-09-12T06:58:19;22.85;69.97
69281;SHT31;56392;51.082;17.080;2023-09-12T07:03:45;23.11;67.82
69281;SHT31;56392;51.082;17.080;2023-09-12T07:09:10;23.50;67.54
69281;SHT31;56392;51.082;17.080;2023-09-12T07:14:37;23.94;66.68
69281;SHT31;56392;51.082;17.080;2023-09-12T07:20:00;24.35;66.23
69281;SHT31;56392;51.082;17.080;2023-09-12T07:25:25;24.87;65.54
69281;SHT31;56392;51.082;17.080;2023-09-12T07:30:48;25.05;63.92
69281;SHT31;56392;51.082;17.080;2023-09-12T07:36:11;25.47;63.63
69281;SHT31;56392;51.082;17.080;2023-09-12T07:41:37;25.80;62.95
69281;SHT31;56392;51.082;17.080;2023-09-12T07:47:01;26.06;61.18
69281;SHT31;56392;51.082;17.080;2023-09-12T07:52:24;26.32;61.40
69281;SHT31;56392;51.082;17.080;2023-09-12T07:57:49;26.75;60.42
69281;SHT31;56392;51.082;17.080;2023-09-12T08:03:12;27.24;57.47
69281;SHT31;56392;51.082;17.080;2023-09-12T08:08:36;27.61;57.28
69281;SHT31;56392;51.082;17.080;2023-09-12T08:14:01;27.84;57.05
69281;SHT31;56392;51.082;17.080;2023-09-12T08:19:24;28.09;56.55
69281;SHT31;56392;51.082;17.080;2023-09-12T08:24:48;28.35;56.37
69281;SHT31;56392;51.082;17.080;2023-09-12T08:30:22;28.57;55.06
69281;SHT31;56392;51.082;17.080;2023-09-12T08:35:48;28.64;53.46
69281;SHT31;56392;51.082;17.080;2023-09-12T08:41:12;28.87;53.73
69281;SHT31;56392;51.082;17.080;2023-09-12T08:46:37;29.23;52.60
69281;SHT31;56392;51.082;17.080;2023-09-12T08:52:02;29.67;51.69
69281;SHT31;56392;51.082;17.080;2023-09-12T08:57:26;30.17;51.11
69281;SHT31;56392;51.082;17.080;2023-09-12T09:02:54;30.72;49.55
69281;SHT31;56392;51.082;17.080;2023-09-12T09:08:20;31.08;50.53
69281;SHT31;56392;51.082;17.080;2023-09-12T09:13:44;31.25;49.64
69281;SHT31;56392;51.082;17.080;2023-09-12T09:19:10;31.34;48.05
69281;SHT31;56392;51.082;17.080;2023-09-12T09:24:34;31.61;47.88
69281;SHT31;56392;51.082;17.080;2023-09-12T09:29:58;31.71;47.35
69281;SHT31;56392;51.082;17.080;2023-09-12T09:35:23;31.90;47.14
69281;SHT31;56392;51.082;17.080;2023-09-12T09:40:46;32.11;46.82
69281;SHT31;56392;51.082;17.080;2023-09-12T09:46:15;32.65;45.84
69281;SHT31;56392;51.082;17.080;2023-09-12T09:51:42;33.91;42.54
69281;SHT31;56392;51.082;17.080;2023-09-12T09:57:06;34.16;42.69
69281;SHT31;56392;51.082;17.080;2023-09-12T10:02:29;34.28;41.32
69281;SHT31;56392;51.082;17.080;2023-09-12T10:07:57;34.28;41.65
69281;SHT31;56392;51.082;17.080;2023-09-12T10:13:22;34.19;41.25
69281;SHT31;56392;51.082;17.080;2023-09-12T10:18:55;34.20;41.32
69281;SHT31;56392;51.082;17.080;2023-09-12T10:24:21;34.19;40.29
69281;SHT31;56392;51.082;17.080;2023-09-12T10:29:45;33.94;39.87
69281;SHT31;56392;51.082;17.080;2023-09-12T10:35:11;33.51;40.55
69281;SHT31;56392;51.082;17.080;2023-09-12T10:40:38;33.06;40.88
69281;SHT31;56392;51.082;17.080;2023-09-12T10:46:02;32.53;41.43
69281;SHT31;56392;51.082;17.080;2023-09-12T10:51:25;32.29;41.67
69281;SHT31;56392;51.082;17.080;2023-09-12T10:57:03;32.09;39.95
69281;SHT31;56392;51.082;17.080;2023-09-12T11:02:28;31.80;39.93
69281;SHT31;56392;51.082;17.080;2023-09-12T11:07:56;31.46;39.78
69281;SHT31;56392;51.082;17.080;2023-09-12T11:13:37;31.29;39.84
69281;SHT31;56392;51.082;17.080;2023-09-12T11:19:15;31.15;40.57
69281;SHT31;56392;51.082;17.080;2023-09-12T11:24:43;30.96;42.26
69281;SHT31;56392;51.082;17.080;2023-09-12T11:30:11;30.71;42.27
69281;SHT31;56392;51.082;17.080;2023-09-12T11:35:37;30.52;42.94
69281;SHT31;56392;51.082;17.080;2023-09-12T11:41:03;30.38;43.13
69281;SHT31;56392;51.082;17.080;2023-09-12T11:46:28;30.35;44.08
69281;SHT31;56392;51.082;17.080;2023-09-12T11:51:53;30.27;44.18
69281;SHT31;56392;51.082;17.080;2023-09-12T11:57:17;30.18;43.67
69281;SHT31;56392;51.082;17.080;2023-09-12T12:02:43;30.07;44.45
69281;SHT31;56392;51.082;17.080;2023-09-12T12:08:07;29.97;43.98
69281;SHT31;56392;51.082;17.080;2023-09-12T12:13:33;29.96;43.15
69281;SHT31;56392;51.082;17.080;2023-09-12T12:18:57;29.94;43.11
69281;SHT31;56392;51.082;17.080;2023-09-12T12:24:20;29.81;42.81
69281;SHT31;56392;51.082;17.080;2023-09-12T12:29:44;29.79;42.68
69281;SHT31;56392;51.082;17.080;2023-09-12T12:35:18;29.67;42.77
69281;SHT31;56392;51.082;17.080;2023-09-12T12:40:41;29.59;42.34
69281;SHT31;56392;51.082;17.080;2023-09-12T12:46:10;29.55;43.31
69281;SHT31;56392;51.082;17.080;2023-09-12T12:51:35;29.45;43.78
69281;SHT31;56392;51.082;17.080;2023-09-12T12:57:01;29.43;44.86
69281;SHT31;56392;51.082;17.080;2023-09-12T13:02:24;29.36;45.02
69281;SHT31;56392;51.082;17.080;2023-09-12T13:07:49;29.29;44.48
69281;SHT31;56392;51.082;17.080;2023-09-12T13:13:12;29.26;44.24
69281;SHT31;56392;51.082;17.080;2023-09-12T13:18:36;29.18;44.39
69281;SHT31;56392;51.082;17.080;2023-09-12T13:24:01;29.12;43.32
69281;SHT31;56392;51.082;17.080;2023-09-12T13:29:24;29.16;44.40
69281;SHT31;56392;51.082;17.080;2023-09-12T13:34:47;29.15;44.62
69281;SHT31;56392;51.082;17.080;2023-09-12T13:40:13;29.12;45.52
69281;SHT31;56392;51.082;17.080;2023-09-12T13:45:38;29.11;45.44
69281;SHT31;56392;51.082;17.080;2023-09-12T13:51:01;29.12;45.76
69281;SHT31;56392;51.082;17.080;2023-09-12T13:56:26;29.09;46.40
69281;SHT31;56392;51.082;17.080;2023-09-12T14:01:49;29.07;46.38
69281;SHT31;56392;51.082;17.080;2023-09-12T14:07:12;29.07;46.25
69281;SHT31;56392;51.082;17.080;2023-09-12T14:12:37;29.04;46.91
69281;SHT31;56392;51.082;17.080;2023-09-12T14:18:01;29.01;47.00
69281;SHT31;56392;51.082;17.080;2023-09-12T14:23:24;28.92;46.98
69281;SHT31;56392;51.082;17.080;2023-09-12T14:28:49;28.88;46.83
69281;SHT31;56392;51.082;17.080;2023-09-12T14:34:12;28.79;46.78
69281;SHT31;56392;51.082;17.080;2023-09-12T14:39:36;28.84;47.08
69281;SHT31;56392;51.082;17.080;2023-09-12T14:45:01;28.78;47.04
69281;SHT31;56392;51.082;17.080;2023-09-12T14:50:24;28.75;46.30
69281;SHT31;56392;51.082;17.080;2023-09-12T14:55:48;28.72;47.10
69281;SHT31;56392;51.082;17.080;2023-09-12T15:01:15;28.65;48.28
69281;SHT31;56392;51.082;17.080;2023-09-12T15:06:39;28.60;48.03
69281;SHT31;56392;51.082;17.080;2023-09-12T15:12:02;28.54;47.25
69281;SHT31;56392;51.082;17.080;2023-09-12T15:17:26;28.53;47.37
69281;SHT31;56392;51.082;17.080;2023-09-12T15:22:49;28.48;49.05
69281;SHT31;56392;51.082;17.080;2023-09-12T15:28:12;28.33;51.31
69281;SHT31;56392;51.082;17.080;2023-09-12T15:33:40;28.19;50.71
69281;SHT31;56392;51.082;17.080;2023-09-12T15:39:05;28.21;49.79
69281;SHT31;56392;51.082;17.080;2023-09-12T15:44:28;28.19;50.43
69281;SHT31;56392;51.082;17.080;2023-09-12T15:49:55;28.16;50.53
69281;SHT31;56392;51.082;17.080;2023-09-12T15:55:18;28.09;50.92
69281;SHT31;56392;51.082;17.080;2023-09-12T16:00:41;28.05;50.26
69281;SHT31;56392;51.082;17.080;2023-09-12T16:06:06;28.00;50.78
69281;SHT31;56392;51.082;17.080;2023-09-12T16:11:29;27.86;53.44
69281;SHT31;56392;51.082;17.080;2023-09-12T16:16:53;27.58;55.51
69281;SHT31;56392;51.082;17.080;2023-09-12T16:22:17;27.35;56.86
69281;SHT31;56392;51.082;17.080;2023-09-12T16:27:41;27.14;57.56
69281;SHT31;56392;51.082;17.080;2023-09-12T16:33:04;26.90;58.33
69281;SHT31;56392;51.082;17.080;2023-09-12T16:38:29;26.70;58.81
69281;SHT31;56392;51.082;17.080;2023-09-12T16:43:52;26.50;59.09
69281;SHT31;56392;51.082;17.080;2023-09-12T16:49:15;26.32;59.73
69281;SHT31;56392;51.082;17.080;2023-09-12T16:54:40;26.16;60.24
69281;SHT31;56392;51.082;17.080;2023-09-12T17:00:04;26.04;60.54
69281;SHT31;56392;51.082;17.080;2023-09-12T17:05:27;25.85;61.34
69281;SHT31;56392;51.082;17.080;2023-09-12T17:10:52;25.64;62.25
69281;SHT31;56392;51.082;17.080;2023-09-12T17:16:15;25.43;62.96
69281;SHT31;56392;51.082;17.080;2023-09-12T17:21:39;25.31;63.43
69281;SHT31;56392;51.082;17.080;2023-09-12T17:27:05;25.19;63.82
69281;SHT31;56392;51.082;17.080;2023-09-12T17:32:28;24.95;64.36
69281;SHT31;56392;51.082;17.080;2023-09-12T17:37:52;24.82;64.84
69281;SHT31;56392;51.082;17.080;2023-09-12T17:43:16;24.71;64.66
69281;SHT31;56392;51.082;17.080;2023-09-12T17:48:41;24.65;64.61
69281;SHT31;56392;51.082;17.080;2023-09-12T17:54:04;24.58;65.71
69281;SHT31;56392;51.082;17.080;2023-09-12T17:59:29;24.48;66.65
69281;SHT31;56392;51.082;17.080;2023-09-12T18:04:54;24.35;67.17
69281;SHT31;56392;51.082;17.080;2023-09-12T18:10:19;24.24;67.80
69281;SHT31;56392;51.082;17.080;2023-09-12T18:15:44;24.10;68.23
69281;SHT31;56392;51.082;17.080;2023-09-12T18:21:07;23.96;68.15
69281;SHT31;56392;51.082;17.080;2023-09-12T18:26:30;23.86;68.01
69281;SHT31;56392;51.082;17.080;2023-09-12T18:31:55;23.71;68.19
69281;SHT31;56392;51.082;17.080;2023-09-12T18:37:18;23.66;68.35
69281;SHT31;56392;51.082;17.080;2023-09-12T18:42:41;23.59;68.41
69281;SHT31;56392;51.082;17.080;2023-09-12T18:48:06;23.52;68.30
69281;SHT31;56392;51.082;17.080;2023-09-12T18:53:29;23.43;68.89
69281;SHT31;56392;51.082;17.080;2023-09-12T18:58:52;23.42;69.71
69281;SHT31;56392;51.082;17.080;2023-09-12T19:04:24;23.26;69.89
69281;SHT31;56392;51.082;17.080;2023-09-12T19:09:48;23.22;69.93
69281;SHT31;56392;51.082;17.080;2023-09-12T19:15:11;23.14;69.63
69281;SHT31;56392;51.082;17.080;2023-09-12T19:20:36;22.99;69.63
69281;SHT31;56392;51.082;17.080;2023-09-12T19:25:59;22.91;69.61
69281;SHT31;56392;51.082;17.080;2023-09-12T19:31:22;22.91;69.86
69281;SHT31;56392;51.082;17.080;2023-09-12T19:36:50;22.81;70.32
69281;SHT31;56392;51.082;17.080;2023-09-12T19:42:16;22.77;70.08
69281;SHT31;56392;51.082;17.080;2023-09-12T19:47:40;22.71;70.61
69281;SHT31;56392;51.082;17.080;2023-09-12T19:53:05;22.68;70.50
69281;SHT31;56392;51.082;17.080;2023-09-12T19:58:29;22.60;70.55
69281;SHT31;56392;51.082;17.080;2023-09-12T20:03:55;22.50;70.84
69281;SHT31;56392;51.082;17.080;2023-09-12T20:09:20;22.39;71.22
69281;SHT31;56392;51.082;17.080;2023-09-12T20:14:45;22.27;71.50
69281;SHT31;56392;51.082;17.080;2023-09-12T20:20:10;22.23;71.52
69281;SHT31;56392;51.082;17.080;2023-09-12T20:25:35;22.24;71.49
69281;SHT31;56392;51.082;17.080;2023-09-12T20:30:58;22.14;71.71
69281;SHT31;56392;51.082;17.080;2023-09-12T20:36:21;22.05;71.71
69281;SHT31;56392;51.082;17.080;2023-09-12T20:41:47;22.05;71.81
69281;SHT31;56392;51.082;17.080;2023-09-12T20:47:11;21.99;71.99
69281;SHT31;56392;51.082;17.080;2023-09-12T20:52:36;21.95;72.25
69281;SHT31;56392;51.082;17.080;2023-09-12T20:58:00;21.92;72.36
69281;SHT31;56392;51.082;17.080;2023-09-12T21:03:24;21.76;72.50
69281;SHT31;56392;51.082;17.080;2023-09-12T21:08:47;21.66;72.83
69281;SHT31;56392;51.082;17.080;2023-09-12T21:14:13;21.58;72.86
69281;SHT31;56392;51.082;17.080;2023-09-12T21:19:38;21.58;73.02
69281;SHT31;56392;51.082;17.080;2023-09-12T21:25:02;21.46;73.25
69281;SHT31;56392;51.082;17.080;2023-09-12T21:30:30;21.41;73.62
69281;SHT31;56392;51.082;17.080;2023-09-12T21:35:53;21.38;73.94
69281;SHT31;56392;51.082;17.080;2023-09-12T21:41:16;21.32;74.22
69281;SHT31;56392;51.082;17.080;2023-09-12T21:46:43;21.25;74.33
69281;SHT31;56392;51.082;17.080;2023-09-12T21:52:07;21.28;74.15
69281;SHT31;56392;51.082;17.080;2023-09-12T21:57:31;21.27;74.20
69281;SHT31;56392;51.082;17.080;2023-09-12T22:02:57;21.30;74.05
69281;SHT31;56392;51.082;17.080;2023-09-12T22:08:21;21.21;74.19
69281;SHT31;56392;51.082;17.080;2023-09-12T22:13:44;21.11;74.49
69281;SHT31;56392;51.082;17.080;2023-09-12T22:19:09;21.11;74.63
69281;SHT31;56392;51.082;17.080;2023-09-12T22:24:32;21.11;74.67
69281;SHT31;56392;51.082;17.080;2023-09-12T22:29:55;21.07;74.89
69281;SHT31;56392;51.082;17.080;2023-09-12T22:35:20;21.05;74.82
69281;SHT31;56392;51.082;17.080;2023-09-12T22:40:43;21.01;74.85
69281;SHT31;56392;51.082;17.080;2023-09-12T22:46:07;20.93;75.25
69281;SHT31;56392;51.082;17.080;2023-09-12T22:51:32;20.81;75.49
69281;SHT31;56392;51.082;17.080;2023-09-12T22:56:55;20.69;75.88
69281;SHT31;56392;51.082;17.080;2023-09-12T23:02:18;20.66;75.84
69281;SHT31;56392;51.082;17.080;2023-09-12T23:07:43;20.76;75.62
69281;SHT31;56392;51.082;17.080;2023-09-12T23:13:07;20.67;75.67
69281;SHT31;56392;51.082;17.080;2023-09-12T23:18:31;20.69;75.74
69281;SHT31;56392;51.082;17.080;2023-09-12T23:23:56;20.67;75.70
69281;SHT31;56392;51.082;17.080;2023-09-12T23:29:19;20.63;75.68
69281;SHT31;56392;51.082;17.080;2023-09-12T23:34:42;20.60;75.71
69281;SHT31;56392;51.082;17.080;2023-09-12T23:40:08;20.46;75.73
69281;SHT31;56392;51.082;17.080;2023-09-12T23:45:31;20.39;75.88
69281;SHT31;56392;51.082;17.080;2023-09-12T23:50:55;20.33;75.87
69281;SHT31;56392;51.082;17.080;2023-09-12T23:56:19;20.18;76.13
